Time;durP1;ratioP1;P1;durP2;ratioP2;P2;SDS_P1;SDS_P2;PMS_P1;PMS_P2;Temp;Humidity;BMP_temperature;BMP_pressure;BME280_temperature;BME280_humidity;BME280_pressure;Samples;Min_cycle;Max_cycle;Signal;HPM_P1;HPM_P2
2022/01/30 00:00:46;;;;;;;15.33;4.23;;;5.70;90.00;;;;;;5035766;28;20430;-69
2022/01/30 00:03:15;;;;;;;9.07;4.30;;;5.80;90.80;;;;;;5034764;28;20417;-69
2022/01/30 00:05:41;;;;;;;22.63;5.00;;;5.80;85.40;;;;;;5034666;28;20429;-75
2022/01/30 00:08:07;;;;;;;12.50;3.60;;;5.90;78.10;;;;;;5034700;28;20767;-76
2022/01/30 00:10:38;;;;;;;16.70;4.70;;;6.00;78.10;;;;;;5033712;28;20432;-69
2022/01/30 00:13:07;;;;;;;11.53;3.40;;;5.90;84.50;;;;;;5052511;28;20438;-76
2022/01/30 00:15:49;;;;;;;10.80;4.80;;;5.90;99.90;;;;;;5053234;28;20537;-77
2022/01/30 00:21:15;;;;;;;10.60;3.20;;;5.40;99.90;;;;;;5053049;28;20935;-75
2022/01/30 00:30:14;;;;;;;9.50;3.93;;;5.00;99.90;;;;;;5053358;28;20408;-68
2022/01/30 00:32:40;;;;;;;14.37;4.30;;;4.90;99.90;;;;;;5053849;28;20910;-71
2022/01/30 00:35:13;;;;;;;7.90;4.20;;;4.90;99.90;;;;;;5053499;28;20500;-69
2022/01/30 00:37:48;;;;;;;7.60;2.90;;;4.90;99.90;;;;;;5053884;28;21260;-75
2022/01/30 00:40:17;;;;;;;15.57;3.67;;;4.80;99.90;;;;;;5052850;28;20981;-76
2022/01/30 00:42:45;;;;;;;17.40;2.90;;;4.90;99.90;;;;;;5052862;28;20418;-69
2022/01/30 00:45:14;;;;;;;15.60;6.47;;;5.00;99.90;;;;;;5053981;28;20430;-70
2022/01/30 00:47:40;;;;;;;10.87;2.73;;;5.00;99.90;;;;;;5053761;28;20485;-75
2022/01/30 00:50:06;;;;;;;15.40;4.27;;;5.00;99.90;;;;;;5051350;28;20898;-78
2022/01/30 00:52:32;;;;;;;14.73;4.47;;;5.10;99.90;;;;;;5052864;28;20426;-76
2022/01/30 00:54:58;;;;;;;9.53;4.53;;;5.20;99.90;;;;;;5053613;28;20536;-68
2022/01/30 00:57:24;;;;;;;10.70;4.23;;;5.20;99.90;;;;;;5053599;28;20397;-70
2022/01/30 00:59:50;;;;;;;22.50;3.67;;;5.20;99.90;;;;;;5052805;28;20406;-69
2022/01/30 01:02:20;;;;;;;10.10;2.70;;;5.20;99.90;;;;;;5053413;28;20432;-69
2022/01/30 01:04:47;;;;;;;6.80;3.27;;;5.10;99.90;;;;;;5053247;28;20458;-70
2022/01/30 01:07:20;;;;;;;9.93;3.43;;;5.10;99.90;;;;;;5033427;28;20402;-68
2022/01/30 01:10:08;;;;;;;17.97;4.10;;;5.10;99.90;;;;;;5048799;28;20433;-68
2022/01/30 01:23:59;;;;;;;24.07;5.53;;;5.40;86.90;;;;;;5052955;28;20532;-70
2022/01/30 01:26:28;;;;;;;7.57;3.37;;;5.50;70.90;;;;;;5052182;28;20409;-75
2022/01/30 01:28:55;;;;;;;8.13;4.13;;;5.60;68.90;;;;;;5052294;28;20401;-67
2022/01/30 01:31:21;;;;;;;2.80;2.63;;;5.60;59.90;;;;;;5052723;28;20426;-75
2022/01/30 01:34:10;;;;;;;14.93;3.97;;;5.70;57.90;;;;;;5052836;28;20422;-74
2022/01/30 01:36:36;;;;;;;7.53;3.00;;;5.70;57.40;;;;;;5053094;28;20445;-72
2022/01/30 01:39:03;;;;;;;5.40;4.37;;;5.80;51.30;;;;;;5051981;28;20510;-74
2022/01/30 01:41:33;;;;;;;21.37;4.60;;;5.80;49.60;;;;;;5052424;28;20481;-74
2022/01/30 01:43:59;;;;;;;6.70;4.40;;;5.80;44.70;;;;;;5052848;28;20399;-68
2022/01/30 01:46:35;;;;;;;11.87;4.77;;;5.90;40.90;;;;;;5052073;28;20411;-68
2022/01/30 01:49:01;;;;;;;19.47;3.97;;;6.00;34.70;;;;;;5051994;28;20471;-76
2022/01/30 01:51:30;;;;;;;17.97;4.77;;;6.00;42.20;;;;;;5052879;28;20798;-75
2022/01/30 01:54:00;;;;;;;13.37;4.50;;;6.00;29.40;;;;;;5052720;28;20441;-75
2022/01/30 01:56:30;;;;;;;4.33;3.30;;;6.00;29.30;;;;;;5052546;28;20976;-67
2022/01/30 01:58:56;;;;;;;10.43;3.77;;;6.10;20.90;;;;;;5051761;28;20472;-75
2022/01/30 02:01:24;;;;;;;13.40;5.10;;;6.10;10.90;;;;;;5052708;28;20425;-68
2022/01/30 02:03:51;;;;;;;7.90;3.80;;;6.20;7.30;;;;;;5052628;28;20396;-75
2022/01/30 02:06:20;;;;;;;11.83;3.13;;;6.20;7.40;;;;;;5052031;28;20424;-68
2022/01/30 02:08:53;;;;;;;11.27;3.30;;;6.20;1.00;;;;;;5051653;28;20519;-67
2022/01/30 02:11:34;;;;;;;15.80;4.57;;;6.20;1.00;;;;;;5052154;28;20529;-68
2022/01/30 02:27:39;;;;;;;22.87;4.53;;;6.30;1.00;;;;;;5033747;28;20482;-76
2022/01/30 02:30:16;;;;;;;19.83;3.97;;;6.20;1.00;;;;;;5066433;28;20410;-77
2022/01/30 02:32:48;;;;;;;8.87;4.77;;;6.20;1.00;;;;;;5054384;28;20803;-69
2022/01/30 02:35:14;;;;;;;19.43;5.40;;;6.20;1.00;;;;;;5072501;28;20486;-73
2022/01/30 02:37:40;;;;;;;10.80;3.60;;;6.30;1.00;;;;;;5072600;28;20429;-75
2022/01/30 02:40:10;;;;;;;21.33;5.07;;;6.30;1.00;;;;;;5071328;28;20179;-74
2022/01/30 02:42:40;;;;;;;13.93;3.43;;;6.20;1.00;;;;;;5071370;28;20933;-75
2022/01/30 02:45:09;;;;;;;7.77;4.80;;;6.20;1.00;;;;;;5075078;28;20502;-68
2022/01/30 02:47:52;;;;;;;12.53;3.93;;;6.10;1.00;;;;;;5076231;28;20894;-76
2022/01/30 02:50:34;;;;;;;14.43;4.67;;;6.10;1.00;;;;;;5074989;28;20436;-69
2022/01/30 02:57:02;;;;;;;6.93;3.87;;;6.10;1.00;;;;;;5075770;28;20584;-73
2022/01/30 02:59:28;;;;;;;11.30;3.97;;;6.20;1.00;;;;;;5074687;28;20428;-68
2022/01/30 03:01:54;;;;;;;9.83;4.43;;;6.20;1.00;;;;;;5074699;28;20518;-71
2022/01/30 03:04:23;;;;;;;15.33;4.57;;;6.20;1.00;;;;;;5075914;28;20484;-69
2022/01/30 03:06:49;;;;;;;9.00;4.60;;;6.20;1.00;;;;;;5075670;28;20475;-75
2022/01/30 03:09:17;;;;;;;9.80;3.90;;;6.10;1.00;;;;;;5074959;28;20406;-73
2022/01/30 03:11:43;;;;;;;11.83;4.03;;;6.20;1.00;;;;;;5075464;28;20441;-73
2022/01/30 03:14:12;;;;;;;11.67;4.17;;;6.10;1.00;;;;;;5055636;28;20406;-76
2022/01/30 03:16:38;;;;;;;8.50;4.80;;;6.10;1.00;;;;;;5058735;28;20459;-75
2022/01/30 03:19:04;;;;;;;16.50;5.23;;;6.10;1.00;;;;;;5073865;28;20423;-67
2022/01/30 03:21:30;;;;;;;11.93;4.40;;;6.10;1.00;;;;;;5075522;28;20186;-76
2022/01/30 03:23:58;;;;;;;17.63;5.47;;;6.00;1.00;;;;;;5075039;28;20750;-72
2022/01/30 03:26:24;;;;;;;30.53;5.90;;;6.00;5.70;;;;;;5075656;28;20455;-75
2022/01/30 03:29:02;;;;;;;12.30;4.43;;;5.90;12.70;;;;;;5074412;28;20412;-74
2022/01/30 03:31:28;;;;;;;6.90;3.70;;;5.90;8.80;;;;;;5074955;28;20445;-74
2022/01/30 03:33:57;;;;;;;16.83;3.63;;;5.90;3.40;;;;;;5075407;28;20405;-75
2022/01/30 03:36:23;;;;;;;12.87;4.50;;;5.90;1.00;;;;;;5052812;28;20536;-68
2022/01/30 03:38:49;;;;;;;18.03;5.27;;;5.90;1.00;;;;;;5054277;28;20403;-75
2022/01/30 03:41:15;;;;;;;12.57;5.07;;;6.00;1.00;;;;;;5055073;28;20477;-70
2022/01/30 03:43:44;;;;;;;11.30;3.23;;;6.10;1.00;;;;;;5055316;28;20157;-76
2022/01/30 03:46:09;;;;;;;11.83;4.03;;;6.10;1.00;;;;;;5055183;28;20392;-74
2022/01/30 03:48:38;;;;;;;10.13;4.07;;;6.10;1.00;;;;;;5058587;28;20759;-75
2022/01/30 03:51:04;;;;;;;24.67;5.10;;;6.10;1.00;;;;;;5074865;28;20196;-75
2022/01/30 03:53:50;;;;;;;19.93;4.80;;;6.10;1.00;;;;;;5072520;28;20428;-67
2022/01/30 03:56:19;;;;;;;17.17;6.30;;;6.00;1.00;;;;;;5074354;28;20289;-74
2022/01/30 03:58:48;;;;;;;25.30;5.93;;;6.00;1.00;;;;;;5073870;28;20412;-75
2022/01/30 04:01:14;;;;;;;19.77;4.53;;;6.00;1.00;;;;;;5074810;28;20422;-69
2022/01/30 04:03:42;;;;;;;10.07;4.67;;;6.00;1.00;;;;;;5074472;28;20486;-68
2022/01/30 04:06:09;;;;;;;27.90;6.10;;;6.00;1.00;;;;;;5074280;28;20511;-68
2022/01/30 04:08:35;;;;;;;19.23;5.60;;;6.10;1.00;;;;;;5073859;28;20404;-73
2022/01/30 04:11:02;;;;;;;17.57;6.17;;;6.10;1.00;;;;;;5074200;28;20538;-68
2022/01/30 04:13:28;;;;;;;8.07;3.43;;;6.00;1.00;;;;;;5073728;28;20422;-68
2022/01/30 04:15:54;;;;;;;17.80;5.93;;;6.10;1.00;;;;;;5074351;28;20458;-73
2022/01/30 04:32:24;;;;;;;;;;;;;;;;;;;;;
2022/01/30 04:35:11;;;;;;;9.53;4.40;;;6.20;1.00;;;;;;5073993;28;20768;-68
2022/01/30 04:38:23;;;;;;;20.17;5.37;;;6.20;1.00;;;;;;5074024;28;20426;-68
2022/01/30 04:40:49;;;;;;;14.23;5.47;;;6.30;1.00;;;;;;5066305;28;20442;-76
2022/01/30 05:04:45;;;;;;;23.73;5.50;;;6.30;1.00;;;;;;5053535;28;20396;-67
2022/01/30 05:09:58;;;;;;;14.27;5.50;;;6.30;1.00;;;;;;5060953;28;20412;-71
2022/01/30 05:12:30;;;;;;;11.20;4.10;;;6.30;1.00;;;;;;5072519;28;20495;-66
2022/01/30 05:14:56;;;;;;;4.63;3.80;;;6.30;1.00;;;;;;5073360;28;20272;-67
2022/01/30 05:17:22;;;;;;;22.73;5.90;;;6.30;1.00;;;;;;5073383;28;20397;-67
2022/01/30 05:23:36;;;;;;;12.80;4.83;;;6.30;1.00;;;;;;5069090;28;20486;-70
2022/01/30 05:26:34;;;;;;;19.40;5.17;;;6.30;1.00;;;;;;5041415;28;20467;-75
2022/01/30 05:29:15;;;;;;;19.43;4.80;;;6.30;1.00;;;;;;5054275;28;20915;-75
2022/01/30 05:31:41;;;;;;;12.83;5.57;;;6.30;1.00;;;;;;5072086;28;20467;-71
2022/01/30 05:34:08;;;;;;;11.63;3.63;;;6.30;1.00;;;;;;5073000;28;20411;-67
2022/01/30 05:36:41;;;;;;;5.73;2.70;;;6.20;1.00;;;;;;5072880;28;20458;-68
2022/01/30 05:39:27;;;;;;;12.73;4.50;;;6.20;1.00;;;;;;5072282;28;20414;-75
2022/01/30 05:41:55;;;;;;;26.23;4.60;;;6.20;1.00;;;;;;5072937;28;20479;-68
2022/01/30 05:44:31;;;;;;;12.93;4.67;;;6.20;1.00;;;;;;5073068;28;20800;-74
2022/01/30 05:46:59;;;;;;;16.77;4.77;;;6.10;1.00;;;;;;5051289;28;20445;-77
2022/01/30 05:49:26;;;;;;;20.03;4.33;;;6.00;1.00;;;;;;5063289;28;20471;-76
2022/01/30 05:52:38;;;;;;;23.73;5.33;;;6.00;1.00;;;;;;5072043;28;20433;-73
2022/01/30 05:54:49;;;;;;;11.47;4.27;;;6.00;1.00;;;;;;5064868;28;20426;-67
2022/01/30 05:57:35;;;;;;;14.40;3.90;;;6.00;1.00;;;;;;5072971;28;20407;-70
2022/01/30 06:00:08;;;;;;;7.33;2.70;;;6.00;1.00;;;;;;5071614;28;20432;-75
2022/01/30 06:02:35;;;;;;;11.40;3.53;;;6.00;1.00;;;;;;5069299;28;20944;-69
2022/01/30 06:05:04;;;;;;;17.87;4.07;;;6.10;1.00;;;;;;5072748;28;20448;-66
2022/01/30 06:07:32;;;;;;;8.07;3.80;;;6.10;1.00;;;;;;5072532;28;20447;-75
2022/01/30 06:09:58;;;;;;;12.67;4.57;;;6.10;1.00;;;;;;5071580;28;20432;-67
2022/01/30 06:12:24;;;;;;;9.40;4.10;;;6.10;1.00;;;;;;5071815;28;20502;-67
2022/01/30 06:15:31;;;;;;;10.93;3.60;;;6.00;1.00;;;;;;5072345;28;20427;-67
2022/01/30 06:20:50;;;;;;;10.73;3.87;;;6.00;1.00;;;;;;5075914;28;20439;-66
2022/01/30 06:24:11;;;;;;;8.90;3.20;;;6.00;1.00;;;;;;5076347;28;20414;-72
2022/01/30 06:26:41;;;;;;;18.63;4.23;;;6.00;1.00;;;;;;5076362;28;20686;-74
2022/01/30 06:29:07;;;;;;;11.13;4.90;;;6.10;1.00;;;;;;5075822;28;20399;-75
2022/01/30 06:31:33;;;;;;;10.93;4.80;;;6.10;1.00;;;;;;5057416;28;20500;-70
2022/01/30 06:33:59;;;;;;;16.40;3.67;;;6.10;1.00;;;;;;5076211;28;20495;-74
2022/01/30 06:36:25;;;;;;;13.07;4.10;;;6.10;1.00;;;;;;5076164;28;20455;-66
2022/01/30 06:38:54;;;;;;;12.43;5.30;;;6.10;1.00;;;;;;5075512;28;20525;-79
2022/01/30 06:41:39;;;;;;;10.40;3.93;;;6.10;1.00;;;;;;5041358;28;20446;-77
2022/01/30 06:44:15;;;;;;;13.03;4.23;;;6.10;1.00;;;;;;5055903;28;20443;-77
2022/01/30 06:50:24;;;;;;;14.33;5.50;;;6.20;1.00;;;;;;5073266;28;20416;-67
2022/01/30 06:52:50;;;;;;;8.63;3.90;;;6.20;1.00;;;;;;5075859;28;20425;-67
2022/01/30 06:55:15;;;;;;;10.90;5.30;;;6.10;1.00;;;;;;5076030;28;20770;-76
2022/01/30 06:57:46;;;;;;;14.23;3.37;;;6.20;1.00;;;;;;5074842;28;20773;-74
2022/01/30 07:00:22;;;;;;;11.00;3.60;;;6.10;1.00;;;;;;5054994;28;20406;-74
2022/01/30 07:02:47;;;;;;;5.47;2.80;;;6.10;1.00;;;;;;5067491;28;20412;-74
2022/01/30 07:05:23;;;;;;;;;;;;;;;;;;;;;
2022/01/30 07:07:49;;;;;;;5.60;2.90;;;6.20;1.00;;;;;;5074605;28;20167;-75
2022/01/30 07:10:16;;;;;;;11.77;4.07;;;6.10;1.00;;;;;;5057111;28;20531;-66
2022/01/30 07:12:41;;;;;;;24.97;4.53;;;6.10;1.00;;;;;;5075207;28;20177;-66
2022/01/30 07:15:08;;;;;;;20.57;4.90;;;6.10;1.00;;;;;;5075178;28;20968;-66
2022/01/30 07:17:41;;;;;;;19.17;4.73;;;6.20;1.00;;;;;;5075575;28;20217;-76
2022/01/30 07:20:08;;;;;;;17.77;5.03;;;6.20;1.00;;;;;;5074677;28;20393;-66
2022/01/30 07:22:35;;;;;;;14.77;4.60;;;6.10;1.00;;;;;;5057273;28;20423;-74
2022/01/30 07:25:02;;;;;;;12.93;4.53;;;6.10;1.00;;;;;;5075667;28;20486;-75
2022/01/30 07:27:28;;;;;;;15.40;4.80;;;6.10;1.00;;;;;;5074486;28;20495;-67
2022/01/30 07:29:54;;;;;;;17.77;4.80;;;6.10;1.00;;;;;;5055972;28;20426;-68
2022/01/30 07:32:20;;;;;;;12.50;3.47;;;6.10;1.00;;;;;;5074791;28;20431;-75
2022/01/30 07:34:50;;;;;;;6.60;3.07;;;6.10;1.00;;;;;;5075262;28;20438;-75
2022/01/30 07:37:16;;;;;;;19.13;4.33;;;6.00;1.00;;;;;;5075118;28;20413;-71
2022/01/30 07:39:46;;;;;;;9.73;3.50;;;6.00;1.00;;;;;;5074542;28;20401;-66
2022/01/30 07:42:12;;;;;;;26.23;5.87;;;6.00;1.00;;;;;;5053608;28;20532;-67
2022/01/30 07:44:59;;;;;;;13.80;4.93;;;6.00;1.00;;;;;;5037347;28;20410;-67
2022/01/30 07:48:11;;;;;;;24.70;4.83;;;5.90;1.00;;;;;;5036073;28;20401;-67
2022/01/30 07:50:40;;;;;;;21.23;5.87;;;5.90;1.00;;;;;;5067307;28;20984;-67
2022/01/30 07:53:06;;;;;;;13.50;5.27;;;5.90;1.00;;;;;;5054997;28;20918;-68
2022/01/30 07:55:34;;;;;;;8.23;3.77;;;6.00;1.00;;;;;;5070960;28;20474;-77
2022/01/30 07:58:00;;;;;;;6.97;4.30;;;6.00;1.00;;;;;;5074848;28;20412;-67
2022/01/30 08:00:26;;;;;;;14.33;5.40;;;6.00;1.00;;;;;;5055457;28;20441;-75
2022/01/30 08:02:52;;;;;;;12.00;4.37;;;6.00;1.00;;;;;;5072904;28;20417;-68
2022/01/30 08:05:18;;;;;;;19.97;4.50;;;6.00;1.00;;;;;;5073334;28;20912;-67
2022/01/30 08:07:44;;;;;;;17.50;4.07;;;6.10;1.00;;;;;;5074682;28;20424;-75
2022/01/30 08:10:10;;;;;;;18.53;5.53;;;6.00;1.00;;;;;;5072733;28;20185;-76
2022/01/30 08:12:38;;;;;;;6.83;3.20;;;6.00;1.00;;;;;;5074523;28;20422;-74
2022/01/30 08:15:04;;;;;;;10.70;4.60;;;6.00;1.00;;;;;;5073862;28;20474;-67
2022/01/30 08:17:36;;;;;;;18.60;4.47;;;6.00;1.00;;;;;;5074443;28;20420;-76
2022/01/30 08:20:02;;;;;;;12.80;3.77;;;6.00;1.00;;;;;;5055551;28;20912;-69
2022/01/30 08:25:38;;;;;;;28.73;5.00;;;6.00;1.00;;;;;;5074320;28;20942;-66
2022/01/30 08:28:04;;;;;;;24.73;7.07;;;6.00;1.00;;;;;;5074332;28;20757;-76
2022/01/30 08:30:50;;;;;;;12.30;4.13;;;6.00;1.00;;;;;;5073584;28;20420;-67
2022/01/30 08:33:16;;;;;;;20.53;4.83;;;6.00;1.00;;;;;;5074178;28;20402;-74
2022/01/30 08:35:42;;;;;;;21.53;5.50;;;5.90;1.00;;;;;;5056319;28;20513;-66
2022/01/30 08:38:18;;;;;;;16.07;4.90;;;5.90;1.00;;;;;;5074162;28;20485;-76
2022/01/30 08:40:47;;;;;;;19.20;4.53;;;5.90;1.00;;;;;;5072995;28;20426;-76
2022/01/30 08:43:14;;;;;;;12.73;3.50;;;5.80;1.00;;;;;;5072862;28;20401;-75
2022/01/30 08:49:02;;;;;;;16.70;5.50;;;5.90;1.00;;;;;;5073380;28;20855;-66
2022/01/30 08:51:37;;;;;;;22.57;5.33;;;6.00;1.00;;;;;;5056176;28;20530;-67
2022/01/30 08:54:03;;;;;;;9.93;4.00;;;6.00;1.00;;;;;;5073854;28;20418;-66
2022/01/30 08:56:29;;;;;;;26.60;6.10;;;6.00;1.00;;;;;;5055912;28;20472;-66
2022/01/30 08:58:55;;;;;;;11.90;3.90;;;6.00;1.00;;;;;;5073134;28;20397;-66
2022/01/30 09:01:21;;;;;;;15.40;4.63;;;6.00;1.00;;;;;;5072879;28;20412;-67
2022/01/30 09:04:14;;;;;;;6.60;4.17;;;6.10;1.00;;;;;;5073388;28;20216;-66
2022/01/30 09:07:27;;;;;;;21.10;5.80;;;6.10;1.00;;;;;;5061105;28;20455;-67
2022/01/30 09:09:56;;;;;;;20.10;4.70;;;6.00;1.00;;;;;;5024417;28;20471;-67
2022/01/30 09:12:23;;;;;;;22.93;5.90;;;6.10;1.00;;;;;;5055840;28;20504;-68
2022/01/30 09:14:50;;;;;;;13.13;5.83;;;6.10;1.00;;;;;;5055683;28;20429;-76
2022/01/30 09:17:16;;;;;;;22.83;5.40;;;6.20;1.00;;;;;;5073388;28;20442;-73
2022/01/30 09:23:06;;;;;;;20.47;4.80;;;6.30;1.00;;;;;;5048809;28;20465;-75
2022/01/30 09:25:32;;;;;;;9.57;4.70;;;6.40;1.00;;;;;;5055263;28;20438;-75
2022/01/30 09:27:58;;;;;;;21.00;5.20;;;6.40;1.00;;;;;;5073254;28;20403;-75
2022/01/30 09:30:24;;;;;;;10.37;3.60;;;6.40;1.00;;;;;;5072538;28;20474;-75
2022/01/30 09:32:50;;;;;;;19.77;4.03;;;6.50;1.00;;;;;;5073193;28;20408;-66
2022/01/30 09:35:16;;;;;;;10.70;3.77;;;6.50;1.00;;;;;;5073033;28;20615;-71
2022/01/30 09:37:41;;;;;;;15.83;5.73;;;6.50;1.00;;;;;;5073182;28;20399;-75
2022/01/30 09:40:08;;;;;;;30.40;5.63;;;6.50;1.00;;;;;;5053607;28;20459;-75
2022/01/30 09:42:34;;;;;;;15.97;4.67;;;6.50;1.00;;;;;;5073118;28;20493;-68
2022/01/30 09:45:04;;;;;;;8.63;4.80;;;6.60;1.00;;;;;;5073126;28;20406;-66
2022/01/30 09:47:31;;;;;;;8.57;3.67;;;6.50;1.00;;;;;;5072952;28;20429;-74
2022/01/30 09:49:59;;;;;;;15.93;4.20;;;6.60;1.00;;;;;;5072196;28;20403;-67
2022/01/30 09:52:25;;;;;;;11.63;4.20;;;6.60;1.00;;;;;;5072788;28;20770;-73
2022/01/30 09:54:51;;;;;;;19.80;5.10;;;6.60;1.00;;;;;;5072865;28;20518;-75
2022/01/30 09:57:18;;;;;;;22.63;6.40;;;6.70;1.00;;;;;;5072511;28;20423;-74
2022/01/30 09:59:44;;;;;;;18.70;5.67;;;6.80;1.00;;;;;;5071994;28;20418;-74
2022/01/30 10:02:12;;;;;;;16.73;5.40;;;6.80;1.00;;;;;;5072850;28;20428;-74
2022/01/30 10:04:39;;;;;;;8.07;3.83;;;6.80;1.00;;;;;;5072890;28;20408;-67
2022/01/30 10:07:15;;;;;;;19.83;6.57;;;6.70;1.00;;;;;;5072983;28;20486;-66
2022/01/30 10:09:46;;;;;;;12.43;5.20;;;6.70;1.00;;;;;;5072233;28;20410;-74
2022/01/30 10:15:03;;;;;;;13.77;5.33;;;6.80;1.00;;;;;;5073061;28;20398;-66
2022/01/30 10:18:06;;;;;;;23.53;4.60;;;6.80;1.00;;;;;;5072055;28;20502;-74
2022/01/30 10:20:36;;;;;;;15.50;4.77;;;6.80;1.00;;;;;;5072048;28;20447;-71
2022/01/30 10:23:08;;;;;;;10.23;4.37;;;6.90;1.00;;;;;;5072819;28;20980;-74
2022/01/30 10:25:36;;;;;;;14.93;4.17;;;6.90;1.00;;;;;;5072599;28;20399;-72
2022/01/30 10:28:06;;;;;;;20.60;5.80;;;6.80;1.00;;;;;;5072596;28;20751;-66
2022/01/30 10:30:51;;;;;;;18.00;4.93;;;6.90;1.00;;;;;;5053032;28;20951;-68
2022/01/30 10:33:23;;;;;;;9.23;3.70;;;6.90;1.00;;;;;;5070904;28;20435;-74
2022/01/30 10:35:56;;;;;;;21.03;5.67;;;7.00;1.00;;;;;;5071525;28;20543;-77
2022/01/30 10:38:23;;;;;;;28.77;4.63;;;7.10;1.00;;;;;;5063156;28;20512;-76
2022/01/30 10:41:11;;;;;;;18.03;4.63;;;7.20;1.00;;;;;;5051669;28;20429;-77
2022/01/30 10:43:57;;;;;;;17.30;4.80;;;7.20;99.90;;;;;;5062779;28;20448;-74
2022/01/30 10:46:43;;;;;;;9.73;3.70;;;7.10;99.90;;;;;;5069535;28;20423;-68
2022/01/30 10:49:17;;;;;;;18.80;4.23;;;7.10;99.90;;;;;;5052681;28;20413;-68
2022/01/30 10:51:59;;;;;;;12.37;5.43;;;7.10;99.90;;;;;;5072506;28;20462;-68
2022/01/30 10:54:29;;;;;;;20.27;4.50;;;7.20;99.90;;;;;;5068804;28;20831;-73
2022/01/30 10:57:03;;;;;;;13.07;4.70;;;7.20;99.90;;;;;;5051868;28;20449;-67
2022/01/30 10:59:29;;;;;;;11.23;4.37;;;7.20;99.90;;;;;;5053942;28;20522;-74
2022/01/30 11:02:09;;;;;;;17.33;5.40;;;7.20;99.90;;;;;;5072340;28;20452;-72
2022/01/30 11:04:35;;;;;;;24.67;5.27;;;7.30;99.90;;;;;;5069828;28;20174;-68
2022/01/30 11:07:04;;;;;;;8.90;3.77;;;7.40;99.90;;;;;;5055617;28;20755;-72
2022/01/30 11:09:36;;;;;;;12.63;4.00;;;7.40;99.90;;;;;;5056082;28;20206;-72
2022/01/30 11:12:06;;;;;;;10.87;4.80;;;7.50;99.90;;;;;;5075582;28;20527;-67
2022/01/30 11:14:40;;;;;;;16.60;5.07;;;7.70;99.90;;;;;;5073798;28;20409;-74
2022/01/30 11:17:08;;;;;;;18.30;4.40;;;7.80;99.90;;;;;;5055896;28;20515;-67
2022/01/30 11:19:43;;;;;;;11.40;4.07;;;8.00;99.90;;;;;;5055189;28;20405;-74
2022/01/30 11:22:13;;;;;;;17.23;4.63;;;8.10;99.90;;;;;;5075433;28;20431;-73
2022/01/30 11:24:47;;;;;;;18.53;4.77;;;8.20;99.90;;;;;;5074779;28;20401;-74
2022/01/30 11:27:19;;;;;;;9.00;4.43;;;8.10;99.90;;;;;;5055623;28;20435;-68
2022/01/30 11:29:48;;;;;;;14.20;4.53;;;7.90;99.90;;;;;;5055779;28;20448;-72
2022/01/30 11:32:16;;;;;;;14.03;4.37;;;7.70;99.90;;;;;;5055078;28;20486;-76
2022/01/30 11:34:43;;;;;;;20.97;4.93;;;7.50;99.90;;;;;;5058240;28;20497;-75
2022/01/30 11:37:12;;;;;;;21.80;5.20;;;7.40;99.90;;;;;;5075465;28;20460;-75
2022/01/30 11:39:45;;;;;;;18.90;5.53;;;7.40;99.90;;;;;;5072024;28;20425;-75
2022/01/30 11:42:13;;;;;;;10.90;6.57;;;7.40;99.90;;;;;;5055203;28;20421;-74
2022/01/30 11:44:40;;;;;;;8.97;4.83;;;7.40;99.90;;;;;;5060379;28;20440;-74
2022/01/30 11:47:08;;;;;;;17.60;5.00;;;7.50;99.90;;;;;;5075348;28;20870;-76
2022/01/30 11:50:03;;;;;;;8.80;3.70;;;7.40;99.90;;;;;;5073641;28;20417;-74
2022/01/30 11:52:51;;;;;;;12.83;4.13;;;7.40;99.90;;;;;;5074924;28;20405;-67
2022/01/30 11:55:50;;;;;;;13.93;4.63;;;7.40;99.90;;;;;;5064800;28;20464;-67
2022/01/30 11:58:38;;;;;;;5.27;2.87;;;7.50;99.90;;;;;;5055014;28;20420;-69
2022/01/30 12:01:12;;;;;;;13.00;4.90;;;7.40;99.90;;;;;;5069926;28;20436;-67
2022/01/30 12:03:38;;;;;;;6.80;2.47;;;7.40;99.90;;;;;;5074874;28;20408;-75
2022/01/30 12:06:25;;;;;;;11.47;2.83;;;7.40;99.90;;;;;;5074231;28;20765;-74
2022/01/30 12:08:54;;;;;;;13.07;3.10;;;7.40;99.90;;;;;;5073902;28;20404;-67
2022/01/30 12:11:37;;;;;;;17.47;4.97;;;7.40;99.90;;;;;;5057685;28;20452;-66
2022/01/30 12:14:04;;;;;;;12.70;4.07;;;7.30;99.90;;;;;;5054727;28;20406;-67
2022/01/30 12:16:48;;;;;;;15.20;5.07;;;7.30;99.90;;;;;;5071162;28;20464;-75
2022/01/30 12:19:18;;;;;;;15.20;3.73;;;7.20;99.90;;;;;;5073729;28;20458;-67
2022/01/30 12:21:45;;;;;;;9.27;3.43;;;7.30;99.90;;;;;;5056105;28;20468;-67
2022/01/30 12:24:32;;;;;;;17.20;4.73;;;7.20;99.90;;;;;;5054504;28;20437;-74
2022/01/30 12:27:04;;;;;;;23.30;5.50;;;7.20;99.90;;;;;;5055244;28;20425;-75
2022/01/30 12:29:39;;;;;;;11.60;3.17;;;7.30;99.90;;;;;;5053150;28;20413;-66
2022/01/30 12:32:20;;;;;;;10.13;3.73;;;7.30;99.90;;;;;;5054621;28;20779;-75
2022/01/30 12:35:01;;;;;;;15.40;3.47;;;7.20;99.90;;;;;;5054109;28;20433;-70
2022/01/30 12:37:35;;;;;;;8.07;3.40;;;7.20;99.90;;;;;;5074181;28;20504;-67
2022/01/30 12:40:13;;;;;;;19.77;5.00;;;7.20;99.90;;;;;;5072524;28;20487;-67
2022/01/30 12:42:40;;;;;;;8.70;3.40;;;7.30;99.90;;;;;;5056164;28;20846;-75
2022/01/30 12:48:18;;;;;;;8.30;3.83;;;7.50;99.90;;;;;;4991414;28;21003;-67
2022/01/30 12:50:46;;;;;;;13.07;3.37;;;7.50;99.90;;;;;;5071893;28;20920;-73
2022/01/30 12:53:14;;;;;;;9.70;2.87;;;7.50;99.90;;;;;;5073774;28;20412;-66
2022/01/30 12:55:40;;;;;;;16.10;3.23;;;7.50;99.90;;;;;;5037732;28;20957;-67
2022/01/30 12:58:06;;;;;;;15.73;4.60;;;7.50;99.90;;;;;;5035975;28;20902;-67
2022/01/30 13:00:32;;;;;;;8.63;3.53;;;7.40;99.90;;;;;;5068905;28;20835;-68
2022/01/30 13:03:01;;;;;;;6.27;3.40;;;7.40;99.90;;;;;;5073687;28;20395;-75
2022/01/30 13:05:29;;;;;;;26.00;4.80;;;7.30;99.90;;;;;;5069492;28;20420;-67
2022/01/30 13:07:57;;;;;;;11.73;3.47;;;7.20;99.90;;;;;;5073121;28;20409;-74
2022/01/30 13:10:25;;;;;;;15.13;4.77;;;7.20;99.90;;;;;;5071958;28;20444;-67
2022/01/30 13:12:51;;;;;;;16.27;3.97;;;7.20;99.90;;;;;;5055585;28;20876;-75
2022/01/30 13:15:22;;;;;;;6.90;2.93;;;7.20;99.90;;;;;;5057070;28;20491;-67
2022/01/30 13:17:51;;;;;;;11.27;3.87;;;7.10;99.90;;;;;;5053594;28;20413;-76
2022/01/30 13:20:23;;;;;;;11.00;3.20;;;7.10;99.90;;;;;;5067562;28;20432;-75
2022/01/30 13:22:53;;;;;;;6.47;2.70;;;6.90;99.90;;;;;;5072907;28;20401;-76
2022/01/30 13:25:20;;;;;;;18.83;4.67;;;6.80;99.90;;;;;;5057943;28;20925;-76
2022/01/30 13:27:53;;;;;;;12.60;3.60;;;6.70;99.90;;;;;;5052891;28;20403;-66
2022/01/30 13:30:27;;;;;;;9.23;2.90;;;6.60;99.90;;;;;;5066239;28;20447;-75
2022/01/30 13:32:56;;;;;;;10.73;3.63;;;6.50;99.90;;;;;;5073212;28;20761;-76
2022/01/30 13:35:24;;;;;;;4.13;2.87;;;6.40;99.90;;;;;;5058782;28;20471;-67
2022/01/30 13:37:52;;;;;;;8.33;3.27;;;6.30;99.90;;;;;;5053288;28;20406;-66
2022/01/30 13:40:25;;;;;;;6.83;3.00;;;6.30;99.90;;;;;;5064019;28;20440;-75
2022/01/30 13:42:59;;;;;;;9.67;3.60;;;6.40;99.90;;;;;;5073133;28;20399;-67
2022/01/30 13:48:04;;;;;;;7.03;3.73;;;6.50;99.90;;;;;;5053246;28;20495;-67
2022/01/30 13:50:37;;;;;;;7.67;3.77;;;6.60;99.90;;;;;;5065033;28;20440;-76
2022/01/30 13:53:19;;;;;;;15.90;4.23;;;6.60;99.90;;;;;;5073104;28;20401;-67
2022/01/30 13:56:06;;;;;;;6.73;2.90;;;6.80;99.90;;;;;;5058332;28;20447;-75
2022/01/30 13:58:50;;;;;;;11.60;4.40;;;6.80;99.90;;;;;;5051447;28;20414;-67
2022/01/30 14:01:21;;;;;;;8.23;3.30;;;6.90;99.90;;;;;;5053304;28;20938;-71
2022/01/30 14:03:49;;;;;;;4.40;2.80;;;6.80;99.90;;;;;;5053367;28;20758;-66
2022/01/30 14:06:26;;;;;;;10.37;2.90;;;6.80;99.90;;;;;;5054014;28;20436;-66
2022/01/30 14:08:56;;;;;;;13.10;4.33;;;6.80;99.90;;;;;;5071069;28;20400;-67
2022/01/30 14:11:36;;;;;;;12.00;4.30;;;6.80;99.90;;;;;;5071339;28;20832;-73
2022/01/30 14:14:09;;;;;;;7.57;4.20;;;6.80;99.90;;;;;;5068012;28;20485;-67
2022/01/30 14:16:53;;;;;;;8.10;3.00;;;6.70;99.90;;;;;;5071233;28;20531;-70
2022/01/30 14:19:27;;;;;;;8.67;3.50;;;6.50;99.90;;;;;;5071531;28;21011;-74
2022/01/30 14:22:18;;;;;;;11.23;4.13;;;6.50;99.90;;;;;;5061633;28;21007;-67
2022/01/30 14:24:54;;;;;;;10.60;3.20;;;6.50;99.90;;;;;;5043472;28;20966;-74
2022/01/30 14:27:21;;;;;;;9.13;3.13;;;6.60;99.90;;;;;;5066231;28;20897;-74
2022/01/30 14:29:55;;;;;;;4.60;2.30;;;6.60;99.90;;;;;;5071811;28;20412;-66
2022/01/30 14:32:30;;;;;;;10.40;3.10;;;6.60;99.90;;;;;;5058797;28;20459;-75
2022/01/30 14:34:59;;;;;;;8.83;4.10;;;6.60;99.90;;;;;;5034584;28;20413;-74
2022/01/30 14:37:47;;;;;;;4.07;2.67;;;6.60;99.90;;;;;;5052562;28;20436;-67
2022/01/30 14:40:13;;;;;;;13.90;4.03;;;6.60;99.90;;;;;;5053052;28;20404;-66
2022/01/30 14:42:39;;;;;;;14.87;3.77;;;6.50;99.90;;;;;;5070120;28;20438;-74
2022/01/30 14:45:05;;;;;;;9.17;2.67;;;6.40;99.90;;;;;;5076426;28;20920;-74
2022/01/30 14:47:31;;;;;;;8.63;3.60;;;6.40;99.90;;;;;;5063457;28;20528;-74
2022/01/30 14:49:57;;;;;;;6.40;3.87;;;6.40;99.90;;;;;;5055148;28;20442;-73
2022/01/30 14:52:33;;;;;;;12.83;3.80;;;6.30;99.90;;;;;;5066363;28;20429;-74
2022/01/30 14:55:02;;;;;;;14.63;4.47;;;6.30;99.90;;;;;;5076130;28;20929;-66
2022/01/30 14:57:29;;;;;;;9.43;4.90;;;6.20;99.90;;;;;;5074188;28;20489;-74
2022/01/30 14:59:55;;;;;;;9.70;3.00;;;6.20;99.90;;;;;;5075012;28;20968;-71
2022/01/30 15:02:23;;;;;;;15.70;4.73;;;6.10;99.90;;;;;;5066796;28;20552;-74
2022/01/30 15:04:49;;;;;;;3.87;2.80;;;6.10;99.90;;;;;;5075935;28;20397;-65